Time;durP1;ratioP1;P1;durP2;ratioP2;P2;SDS_P1;SDS_P2;PMS_P1;PMS_P2;Temp;Humidity;BMP_temperature;BMP_pressure;BME280_temperature;BME280_humidity;BME280_pressure;Samples;Min_cycle;Max_cycle;Signal;HPM_P1;HPM_P2
2021/08/11 00:00:26;;;;;;;8.05;3.88;;;14.10;99.90;;;;;;5071251;28;20052;-69
2021/08/11 00:02:52;;;;;;;6.53;3.70;;;14.10;99.90;;;;;;5071141;28;20029;-71
2021/08/11 00:05:18;;;;;;;5.30;3.58;;;14.10;99.90;;;;;;5071214;28;20078;-70
2021/08/11 00:07:43;;;;;;;7.45;3.72;;;14.10;99.90;;;;;;5070948;28;20049;-69
2021/08/11 00:10:10;;;;;;;7.90;4.25;;;14.10;99.90;;;;;;5071059;28;20028;-69
2021/08/11 00:12:35;;;;;;;14.23;4.18;;;14.10;99.90;;;;;;5071087;28;20032;-70
2021/08/11 00:15:01;;;;;;;5.20;3.38;;;14.10;99.90;;;;;;5070875;28;20097;-69
2021/08/11 00:17:27;;;;;;;9.60;4.45;;;14.10;99.90;;;;;;5070652;28;20068;-70
2021/08/11 00:19:53;;;;;;;6.85;3.95;;;14.00;99.90;;;;;;5069700;28;20106;-72
2021/08/11 00:22:19;;;;;;;11.40;4.55;;;14.10;99.90;;;;;;5069779;28;20096;-70
2021/08/11 00:24:45;;;;;;;9.40;4.35;;;14.10;99.90;;;;;;5070893;28;20384;-69
2021/08/11 00:27:10;;;;;;;8.55;4.03;;;14.00;99.90;;;;;;5069049;28;20044;-69
2021/08/11 00:29:36;;;;;;;11.55;4.20;;;14.10;99.90;;;;;;5050665;28;20034;-70
2021/08/11 00:32:02;;;;;;;9.95;4.28;;;14.00;99.90;;;;;;5050813;28;20071;-71
2021/08/11 00:34:27;;;;;;;11.38;4.75;;;14.00;99.90;;;;;;5049221;28;20037;-70
2021/08/11 00:36:54;;;;;;;12.73;4.50;;;14.10;99.90;;;;;;5050683;28;20033;-72
2021/08/11 00:39:20;;;;;;;8.38;4.05;;;14.00;99.90;;;;;;5049662;28;20025;-69
2021/08/11 00:41:45;;;;;;;7.55;3.88;;;14.00;99.90;;;;;;5049518;28;20037;-70
2021/08/11 00:44:12;;;;;;;8.93;4.15;;;14.10;99.90;;;;;;5049405;28;20389;-69
2021/08/11 00:46:45;;;;;;;7.63;4.18;;;14.10;99.90;;;;;;5049222;28;20601;-70
2021/08/11 00:49:15;;;;;;;7.30;4.05;;;14.00;99.90;;;;;;5050750;28;20021;-70
2021/08/11 00:51:42;;;;;;;9.25;4.25;;;14.00;99.90;;;;;;5049406;28;20030;-71
2021/08/11 00:54:09;;;;;;;5.47;3.08;;;14.00;99.90;;;;;;5050495;28;20494;-70
2021/08/11 00:56:38;;;;;;;12.05;4.53;;;13.90;99.90;;;;;;5049081;28;20036;-71
2021/08/11 00:59:05;;;;;;;7.40;3.97;;;14.00;99.90;;;;;;5046039;28;20068;-68
2021/08/11 01:01:32;;;;;;;4.85;2.90;;;14.00;99.90;;;;;;5048358;28;20037;-71
2021/08/11 01:04:01;;;;;;;7.05;4.32;;;14.00;99.90;;;;;;5045885;28;20093;-72
2021/08/11 01:06:30;;;;;;;8.18;4.13;;;13.90;99.90;;;;;;5047259;28;20022;-70
2021/08/11 01:08:57;;;;;;;7.50;4.07;;;13.90;99.90;;;;;;5045917;28;20029;-70
2021/08/11 01:11:25;;;;;;;13.20;4.40;;;13.80;99.90;;;;;;5045955;28;20056;-69
2021/08/11 01:13:51;;;;;;;7.50;4.22;;;13.80;99.90;;;;;;5047153;28;20073;-71
2021/08/11 01:16:18;;;;;;;7.30;4.60;;;13.80;99.90;;;;;;5045414;28;20060;-69
2021/08/11 01:18:44;;;;;;;10.73;3.95;;;13.70;99.90;;;;;;5044810;28;20033;-69
2021/08/11 01:21:34;;;;;;;6.38;3.33;;;13.70;99.90;;;;;;5046504;28;20022;-70
2021/08/11 01:24:19;;;;;;;7.40;3.60;;;13.70;99.90;;;;;;5046847;28;20052;-68
2021/08/11 01:27:23;;;;;;;7.05;3.90;;;13.60;99.90;;;;;;5047156;28;20030;-69
2021/08/11 01:30:04;;;;;;;5.73;3.43;;;13.60;99.90;;;;;;5047022;28;20029;-70
2021/08/11 01:32:48;;;;;;;5.68;3.50;;;13.60;99.90;;;;;;5047016;28;20052;-69
2021/08/11 01:35:18;;;;;;;7.97;3.88;;;13.50;99.90;;;;;;5046857;28;20045;-69
2021/08/11 01:37:45;;;;;;;13.50;4.45;;;13.50;99.90;;;;;;5046759;28;20483;-70
2021/08/11 01:40:18;;;;;;;5.80;3.55;;;13.50;99.90;;;;;;5045461;28;20034;-68
2021/08/11 01:42:45;;;;;;;6.72;3.60;;;13.40;99.90;;;;;;5046562;28;20033;-70
2021/08/11 01:45:19;;;;;;;7.32;3.17;;;13.40;99.90;;;;;;5046615;28;20785;-69
2021/08/11 01:47:47;;;;;;;;;;;13.40;99.90;;;;;;5047026;28;20017;-69
2021/08/11 01:50:15;;;;;;;5.88;4.07;;;13.40;99.90;;;;;;5046478;28;19964;-72
2021/08/11 01:52:44;;;;;;;7.40;3.95;;;13.40;99.90;;;;;;5046405;28;20081;-70
2021/08/11 01:55:11;;;;;;;9.43;4.32;;;13.40;99.90;;;;;;5046304;28;20044;-70
2021/08/11 01:57:43;;;;;;;5.95;3.65;;;13.30;99.90;;;;;;5046386;28;20037;-70
2021/08/11 02:00:09;;;;;;;8.48;4.20;;;13.30;99.90;;;;;;5046322;28;20470;-69
2021/08/11 02:02:37;;;;;;;7.50;3.80;;;13.30;99.90;;;;;;5046127;28;20021;-69
2021/08/11 02:05:10;;;;;;;8.68;4.93;;;13.20;99.90;;;;;;5046190;28;20040;-70
2021/08/11 02:07:37;;;;;;;5.43;3.65;;;13.30;99.90;;;;;;5045566;28;20017;-69
2021/08/11 02:10:05;;;;;;;5.93;3.63;;;13.30;99.90;;;;;;5046174;28;20070;-69
2021/08/11 02:12:31;;;;;;;8.00;3.95;;;13.20;99.90;;;;;;5046117;28;20470;-68
2021/08/11 02:14:58;;;;;;;9.35;4.68;;;13.20;99.90;;;;;;5045990;28;20044;-69
2021/08/11 02:17:24;;;;;;;8.48;3.67;;;13.20;99.90;;;;;;5045994;28;20109;-69
2021/08/11 02:19:50;;;;;;;5.88;3.47;;;13.20;99.90;;;;;;5046000;28;20440;-71
2021/08/11 02:22:16;;;;;;;7.75;4.35;;;13.20;99.90;;;;;;5044601;28;20036;-71
2021/08/11 02:24:41;;;;;;;7.47;4.53;;;13.20;99.90;;;;;;5045745;28;20025;-71
2021/08/11 02:27:17;;;;;;;11.27;4.95;;;13.10;99.90;;;;;;5045733;28;20033;-70
2021/08/11 02:29:50;;;;;;;8.45;4.22;;;13.10;99.90;;;;;;5045869;28;20025;-69
2021/08/11 02:32:25;;;;;;;9.40;4.38;;;13.20;99.90;;;;;;5045953;28;20025;-70
2021/08/11 02:35:03;;;;;;;9.75;4.43;;;13.20;99.90;;;;;;5045838;28;20080;-70
2021/08/11 02:37:38;;;;;;;9.27;4.75;;;13.20;99.90;;;;;;5045515;28;20079;-70
2021/08/11 02:40:07;;;;;;;8.63;4.28;;;13.20;99.90;;;;;;5045496;28;20028;-68
2021/08/11 02:42:55;;;;;;;11.88;5.13;;;13.20;99.90;;;;;;5045545;28;20224;-69
2021/08/11 02:45:21;;;;;;;7.90;4.40;;;13.20;99.90;;;;;;5045674;28;20095;-69
2021/08/11 02:47:48;;;;;;;7.80;4.55;;;13.20;99.90;;;;;;5044257;28;20083;-69
2021/08/11 02:50:15;;;;;;;9.18;4.38;;;13.20;99.90;;;;;;5045502;28;20029;-69
2021/08/11 02:52:42;;;;;;;8.48;4.50;;;13.20;99.90;;;;;;5044073;28;20025;-69
2021/08/11 02:55:08;;;;;;;23.48;4.50;;;13.20;99.90;;;;;;5045410;28;20108;-69
2021/08/11 02:57:35;;;;;;;8.38;4.43;;;13.20;99.90;;;;;;5045336;28;20021;-68
2021/08/11 03:00:01;;;;;;;10.68;4.95;;;13.20;99.90;;;;;;5045124;28;20051;-69
2021/08/11 03:02:27;;;;;;;12.50;4.72;;;13.20;99.90;;;;;;5045215;28;20038;-70
2021/08/11 03:04:53;;;;;;;10.75;4.80;;;13.10;99.90;;;;;;5045449;28;20106;-69
2021/08/11 03:07:20;;;;;;;14.98;4.03;;;13.10;99.90;;;;;;5043809;28;20025;-70
2021/08/11 03:09:47;;;;;;;7.95;3.97;;;13.00;99.90;;;;;;5045070;28;20053;-69
2021/08/11 03:12:12;;;;;;;9.60;4.85;;;13.10;99.90;;;;;;5045116;28;20037;-70
2021/08/11 03:14:40;;;;;;;7.65;3.95;;;13.00;99.90;;;;;;5043649;28;20041;-69
2021/08/11 03:17:12;;;;;;;7.18;4.07;;;13.10;99.90;;;;;;5060157;28;20075;-69
2021/08/11 03:19:38;;;;;;;11.90;4.75;;;13.10;99.90;;;;;;5063958;28;20571;-70
2021/08/11 03:22:06;;;;;;;11.45;5.28;;;13.10;99.90;;;;;;5064821;28;20466;-68
2021/08/11 03:24:31;;;;;;;18.00;4.88;;;13.10;99.90;;;;;;5064649;28;20029;-69
2021/08/11 03:26:57;;;;;;;7.43;4.18;;;13.10;99.90;;;;;;5064871;28;20074;-70
2021/08/11 03:29:23;;;;;;;9.75;4.93;;;13.10;99.90;;;;;;5063753;28;20049;-69
2021/08/11 03:31:49;;;;;;;7.35;4.03;;;13.10;99.90;;;;;;5064749;28;20028;-70
2021/08/11 03:34:14;;;;;;;8.98;4.25;;;13.10;99.90;;;;;;5064703;28;20041;-69
2021/08/11 03:36:40;;;;;;;17.65;5.72;;;13.10;99.90;;;;;;5063379;28;20108;-70
2021/08/11 03:39:06;;;;;;;8.75;4.72;;;13.10;99.90;;;;;;5064574;28;20151;-68
2021/08/11 03:41:31;;;;;;;8.18;4.32;;;13.10;99.90;;;;;;5064602;28;20059;-68
2021/08/11 03:43:57;;;;;;;10.75;4.75;;;13.10;99.90;;;;;;5064537;28;20033;-68
2021/08/11 03:46:23;;;;;;;7.32;4.18;;;13.00;99.90;;;;;;5064544;28;20029;-71
2021/08/11 03:48:49;;;;;;;9.32;5.35;;;13.00;99.90;;;;;;5064806;28;20029;-71
2021/08/11 03:51:15;;;;;;;12.93;5.60;;;13.00;99.90;;;;;;5064644;28;20033;-69
2021/08/11 03:53:40;;;;;;;6.88;4.32;;;13.00;99.90;;;;;;5063066;28;20037;-68
2021/08/11 03:56:06;;;;;;;12.35;4.95;;;13.00;99.90;;;;;;5064554;28;20035;-69
2021/08/11 03:58:33;;;;;;;11.30;5.57;;;13.00;99.90;;;;;;5062353;28;20029;-69
2021/08/11 04:00:58;;;;;;;11.02;4.82;;;13.00;99.90;;;;;;5063262;28;20034;-69
2021/08/11 04:03:24;;;;;;;9.27;4.28;;;13.00;99.90;;;;;;5064498;28;20033;-70
2021/08/11 04:05:50;;;;;;;19.30;6.00;;;13.00;99.90;;;;;;5064520;28;20036;-72
2021/08/11 04:08:16;;;;;;;10.25;4.90;;;13.00;99.90;;;;;;5061321;28;20025;-71
2021/08/11 04:10:47;;;;;;;8.27;5.15;;;13.00;99.90;;;;;;5064057;28;20028;-71
2021/08/11 04:13:15;;;;;;;10.27;5.53;;;13.00;99.90;;;;;;5064436;28;20028;-71
2021/08/11 04:15:42;;;;;;;8.85;5.03;;;13.00;99.90;;;;;;5062976;28;20029;-70
2021/08/11 04:18:08;;;;;;;9.30;4.93;;;13.00;99.90;;;;;;5064010;28;20071;-69
2021/08/11 04:20:33;;;;;;;10.38;4.45;;;13.00;99.90;;;;;;5062792;28;20396;-69
2021/08/11 04:23:00;;;;;;;9.25;5.50;;;13.00;99.90;;;;;;5062896;28;20048;-70
2021/08/11 04:25:26;;;;;;;15.93;4.72;;;13.00;99.90;;;;;;5064431;28;20033;-69
2021/08/11 04:27:52;;;;;;;9.88;5.03;;;12.90;99.90;;;;;;5063216;28;20123;-70
2021/08/11 04:30:18;;;;;;;9.93;5.22;;;12.90;99.90;;;;;;5063186;28;20035;-70
2021/08/11 04:32:44;;;;;;;11.63;5.55;;;12.90;99.90;;;;;;5066553;28;20033;-69
2021/08/11 04:35:10;;;;;;;9.20;5.43;;;13.00;99.90;;;;;;5067843;28;20040;-70
2021/08/11 04:37:42;;;;;;;11.35;5.57;;;12.90;99.90;;;;;;5067960;28;20025;-70
2021/08/11 04:40:08;;;;;;;10.18;4.43;;;12.90;99.90;;;;;;5066561;28;20021;-70
2021/08/11 04:42:34;;;;;;;13.05;6.22;;;13.00;99.90;;;;;;5067804;28;20029;-70
2021/08/11 04:45:00;;;;;;;11.25;6.05;;;13.00;99.90;;;;;;5067615;28;20025;-69
2021/08/11 04:47:27;;;;;;;10.75;5.88;;;13.00;99.90;;;;;;5067723;28;20037;-71
2021/08/11 04:49:53;;;;;;;9.73;5.40;;;13.10;99.90;;;;;;5067952;28;20029;-71
2021/08/11 04:52:19;;;;;;;11.93;5.78;;;13.20;99.90;;;;;;5067773;28;20025;-74
2021/08/11 04:54:44;;;;;;;15.40;7.05;;;13.10;99.90;;;;;;5067487;28;20036;-69
2021/08/11 04:57:10;;;;;;;10.98;6.55;;;13.10;99.90;;;;;;5066163;28;20051;-71
2021/08/11 04:59:35;;;;;;;15.52;6.03;;;13.20;99.90;;;;;;5067364;28;20036;-72
2021/08/11 05:02:01;;;;;;;12.55;6.30;;;13.20;99.90;;;;;;5066097;28;20052;-70
2021/08/11 05:04:27;;;;;;;11.52;6.10;;;13.20;99.90;;;;;;5066059;28;20025;-71
2021/08/11 05:06:53;;;;;;;11.48;6.15;;;13.20;99.90;;;;;;5067282;28;20519;-71
2021/08/11 05:09:18;;;;;;;16.88;7.47;;;13.30;99.90;;;;;;5065939;28;20089;-72
2021/08/11 05:11:44;;;;;;;13.38;6.50;;;13.20;99.90;;;;;;5067336;28;20029;-69
2021/08/11 05:14:10;;;;;;;15.30;7.55;;;13.30;99.90;;;;;;5065847;28;20032;-69
2021/08/11 05:16:36;;;;;;;9.45;5.43;;;13.30;99.90;;;;;;5066598;28;20048;-71
2021/08/11 05:19:01;;;;;;;14.07;6.95;;;13.40;99.90;;;;;;5067166;28;20037;-70
2021/08/11 05:21:28;;;;;;;14.75;7.25;;;13.40;99.90;;;;;;5066877;28;20028;-71
2021/08/11 05:23:53;;;;;;;16.75;7.32;;;13.40;99.90;;;;;;5067174;28;20025;-71
2021/08/11 05:26:19;;;;;;;17.40;7.88;;;13.60;99.90;;;;;;5065552;28;20045;-72
2021/08/11 05:28:49;;;;;;;17.98;7.80;;;13.50;99.90;;;;;;5066538;28;20037;-70
2021/08/11 05:31:15;;;;;;;15.57;7.68;;;13.60;99.90;;;;;;5068988;28;20024;-70
2021/08/11 05:33:41;;;;;;;13.95;6.75;;;13.60;99.90;;;;;;5065007;28;20086;-69
2021/08/11 05:36:07;;;;;;;17.27;7.88;;;13.70;99.90;;;;;;5066760;28;20051;-70
2021/08/11 05:38:39;;;;;;;17.58;8.02;;;13.70;99.90;;;;;;5066458;28;20074;-71
2021/08/11 05:41:05;;;;;;;17.48;7.90;;;13.80;99.90;;;;;;5065552;28;20029;-69
2021/08/11 05:43:31;;;;;;;18.48;8.02;;;13.80;99.90;;;;;;5065584;28;20040;-70
2021/08/11 05:45:57;;;;;;;12.38;7.05;;;13.90;99.90;;;;;;5066655;28;20021;-71
2021/08/11 05:48:23;;;;;;;8.50;4.70;;;14.00;99.90;;;;;;5066677;28;20025;-69
2021/08/11 05:50:49;;;;;;;7.53;4.70;;;14.00;99.90;;;;;;5064998;28;20032;-72
2021/08/11 05:53:16;;;;;;;9.60;5.45;;;14.00;99.90;;;;;;5064911;28;20043;-72
2021/08/11 05:55:42;;;;;;;11.23;5.28;;;14.00;99.90;;;;;;5066459;28;20043;-70
2021/08/11 05:58:13;;;;;;;21.33;7.13;;;14.10;99.90;;;;;;5064930;28;20024;-69
2021/08/11 06:00:44;;;;;;;15.68;6.15;;;14.20;99.90;;;;;;5066133;28;20572;-72
2021/08/11 06:03:10;;;;;;;19.75;8.48;;;14.30;99.90;;;;;;5064937;28;20112;-71
2021/08/11 06:05:35;;;;;;;16.85;7.63;;;14.40;99.90;;;;;;5066268;28;20519;-70
2021/08/11 06:08:01;;;;;;;16.67;7.22;;;14.50;99.90;;;;;;5065644;28;20031;-70
2021/08/11 06:10:27;;;;;;;18.67;6.78;;;14.70;99.90;;;;;;5061644;28;20059;-71
2021/08/11 06:12:53;;;;;;;15.27;7.93;;;14.80;99.90;;;;;;5061443;28;20037;-72
2021/08/11 06:15:19;;;;;;;16.48;7.15;;;14.90;99.90;;;;;;5044897;28;20128;-70
2021/08/11 06:17:50;;;;;;;11.88;5.65;;;15.00;99.90;;;;;;5045983;28;20072;-70
2021/08/11 06:20:21;;;;;;;11.02;5.82;;;15.10;99.90;;;;;;5048120;28;20029;-71
2021/08/11 06:22:47;;;;;;;12.13;6.28;;;15.20;99.90;;;;;;5065186;28;20037;-71
2021/08/11 06:25:14;;;;;;;16.40;7.10;;;15.30;99.90;;;;;;5065902;28;20021;-69
2021/08/11 06:27:40;;;;;;;11.82;6.82;;;15.40;99.90;;;;;;5047832;28;20044;-71
2021/08/11 06:30:08;;;;;;;10.68;5.70;;;15.50;99.90;;;;;;5058353;28;20021;-70
2021/08/11 06:32:34;;;;;;;13.90;6.25;;;15.50;99.90;;;;;;5045753;28;20022;-70
2021/08/11 06:35:00;;;;;;;12.30;5.78;;;15.60;99.90;;;;;;5045730;28;20092;-71
2021/08/11 06:37:26;;;;;;;15.05;6.63;;;15.70;99.90;;;;;;5045711;28;20025;-71
2021/08/11 06:39:55;;;;;;;12.00;5.15;;;15.70;99.90;;;;;;5045622;28;20032;-72
2021/08/11 06:42:23;;;;;;;10.45;5.70;;;15.70;99.90;;;;;;5045864;28;20026;-70
2021/08/11 06:44:50;;;;;;;10.90;5.40;;;15.80;99.90;;;;;;5046371;28;20087;-71
2021/08/11 06:47:16;;;;;;;12.35;5.88;;;15.70;99.90;;;;;;5079578;28;20036;-70
2021/08/11 06:49:42;;;;;;;11.70;5.03;;;15.70;99.90;;;;;;5062270;28;20033;-69
2021/08/11 06:52:07;;;;;;;12.10;6.10;;;15.70;99.90;;;;;;5065445;28;20116;-71
2021/08/11 06:54:33;;;;;;;10.88;6.30;;;15.60;99.90;;;;;;5065031;28;20051;-70
2021/08/11 06:56:58;;;;;;;10.18;5.60;;;15.80;99.90;;;;;;5063434;28;20108;-72
2021/08/11 06:59:24;;;;;;;22.13;6.22;;;15.90;99.90;;;;;;5064137;28;20052;-70
2021/08/11 07:01:50;;;;;;;9.75;5.35;;;16.00;99.90;;;;;;5065343;28;20029;-73
2021/08/11 07:04:15;;;;;;;13.40;5.53;;;16.00;99.90;;;;;;5065133;28;20040;-69
2021/08/11 07:06:41;;;;;;;9.48;5.88;;;16.10;99.90;;;;;;5065061;28;20033;-72
2021/08/11 07:09:08;;;;;;;9.82;4.78;;;16.20;99.90;;;;;;5063217;28;20052;-70
2021/08/11 07:11:33;;;;;;;7.97;4.40;;;16.20;99.90;;;;;;5046554;28;20085;-71
2021/08/11 07:13:59;;;;;;;10.30;4.22;;;16.20;99.90;;;;;;5044789;28;20033;-72
2021/08/11 07:16:25;;;;;;;13.15;4.03;;;16.40;99.90;;;;;;5055170;28;20053;-69
2021/08/11 07:18:51;;;;;;;10.07;4.00;;;16.40;99.90;;;;;;5064235;28;20029;-71
2021/08/11 07:21:17;;;;;;;7.32;3.75;;;16.40;99.90;;;;;;5064888;28;20084;-69
2021/08/11 07:23:45;;;;;;;11.43;4.70;;;16.50;99.90;;;;;;5064646;28;20067;-70
2021/08/11 07:26:11;;;;;;;10.07;4.18;;;16.60;99.90;;;;;;5063339;28;20029;-70
2021/08/11 07:28:37;;;;;;;9.18;4.30;;;16.70;99.90;;;;;;5064516;28;20025;-70
2021/08/11 07:31:02;;;;;;;14.10;4.47;;;16.80;99.90;;;;;;5064606;28;20029;-70
2021/08/11 07:33:28;;;;;;;7.43;3.50;;;16.90;99.90;;;;;;5064399;28;20041;-70
2021/08/11 07:35:56;;;;;;;6.53;3.53;;;17.00;99.90;;;;;;5064851;28;20028;-71
2021/08/11 07:38:22;;;;;;;6.72;3.33;;;17.10;99.90;;;;;;5064897;28;20092;-74
2021/08/11 07:40:48;;;;;;;7.22;3.50;;;17.20;99.90;;;;;;5063486;28;20055;-70
2021/08/11 07:43:13;;;;;;;13.10;4.40;;;17.30;99.90;;;;;;5064599;28;20061;-74
2021/08/11 07:45:39;;;;;;;11.88;4.35;;;17.30;99.90;;;;;;5065648;28;20110;-69
2021/08/11 07:48:05;;;;;;;6.25;3.67;;;17.40;99.90;;;;;;5063556;28;20482;-70
2021/08/11 07:50:33;;;;;;;8.35;3.80;;;17.40;99.90;;;;;;5064325;28;20028;-74
2021/08/11 07:52:59;;;;;;;6.47;3.25;;;17.50;99.90;;;;;;5064668;28;20029;-69
2021/08/11 07:55:25;;;;;;;7.30;3.13;;;17.60;99.90;;;;;;5064809;28;20068;-69
2021/08/11 07:57:53;;;;;;;12.70;3.38;;;17.70;99.90;;;;;;5064703;28;20500;-69
2021/08/11 08:00:20;;;;;;;7.53;3.67;;;17.80;99.90;;;;;;5064539;28;20033;-71
2021/08/11 08:02:46;;;;;;;7.82;3.58;;;17.90;99.90;;;;;;5048024;28;20017;-69
2021/08/11 08:05:12;;;;;;;7.03;2.80;;;17.90;99.90;;;;;;5043049;28;20052;-68
2021/08/11 08:07:38;;;;;;;6.35;2.78;;;17.90;99.90;;;;;;5047217;28;20029;-70
2021/08/11 08:10:05;;;;;;;9.55;3.47;;;17.90;99.90;;;;;;5047894;28;20128;-69
2021/08/11 08:12:31;;;;;;;4.15;2.58;;;17.90;99.90;;;;;;5048082;28;20108;-74
2021/08/11 08:14:56;;;;;;;6.22;2.85;;;18.10;99.90;;;;;;5046785;28;20112;-71
2021/08/11 08:17:22;;;;;;;6.88;3.38;;;18.00;99.90;;;;;;5047575;28;20050;-73
2021/08/11 08:19:48;;;;;;;9.38;2.97;;;18.00;99.90;;;;;;5046851;28;20033;-70
2021/08/11 08:22:16;;;;;;;5.72;3.05;;;18.10;99.90;;;;;;5046640;28;20057;-68
2021/08/11 08:24:45;;;;;;;6.88;3.03;;;18.10;99.90;;;;;;5047610;28;20067;-70
2021/08/11 08:27:11;;;;;;;8.98;2.75;;;18.10;99.90;;;;;;5047754;28;20030;-68
2021/08/11 08:29:37;;;;;;;5.88;2.90;;;18.20;99.90;;;;;;5046431;28;20033;-69
2021/08/11 08:32:03;;;;;;;12.40;3.08;;;18.30;99.90;;;;;;5047649;28;20030;-68
2021/08/11 08:34:29;;;;;;;6.57;2.70;;;18.30;99.90;;;;;;5047630;28;20038;-69
2021/08/11 08:36:55;;;;;;;4.28;2.58;;;18.50;99.90;;;;;;5047120;28;20166;-69
2021/08/11 08:39:20;;;;;;;11.13;3.03;;;18.60;99.90;;;;;;5046063;28;20053;-73
2021/08/11 08:41:46;;;;;;;7.43;2.58;;;18.70;99.90;;;;;;5047313;28;20017;-69
2021/08/11 08:44:14;;;;;;;9.90;3.65;;;18.90;99.90;;;;;;5047712;28;20029;-71
2021/08/11 08:46:41;;;;;;;6.38;3.17;;;18.80;99.90;;;;;;5047683;28;20025;-72
2021/08/11 08:49:07;;;;;;;4.28;2.75;;;18.80;99.90;;;;;;5052631;28;20033;-69
2021/08/11 08:51:42;;;;;;;3.83;2.33;;;18.80;99.90;;;;;;5056972;28;20083;-69
2021/08/11 08:54:10;;;;;;;4.38;2.80;;;18.70;99.90;;;;;;5062110;28;20038;-70
2021/08/11 08:56:36;;;;;;;4.10;2.40;;;18.70;99.90;;;;;;5047597;28;20061;-68
2021/08/11 08:59:02;;;;;;;3.75;2.35;;;18.60;99.90;;;;;;5046154;28;20025;-68
2021/08/11 09:01:28;;;;;;;8.77;2.20;;;18.70;99.90;;;;;;5047668;28;20442;-69
2021/08/11 09:03:54;;;;;;;7.78;2.80;;;18.90;99.90;;;;;;5047467;28;20029;-70
2021/08/11 09:06:20;;;;;;;4.93;2.47;;;19.00;99.90;;;;;;5046426;28;20089;-71
2021/08/11 09:09:24;;;;;;;13.10;3.03;;;19.00;99.90;;;;;;5047459;28;20040;-69
2021/08/11 09:12:10;;;;;;;10.60;2.75;;;19.00;99.90;;;;;;5033840;28;20041;-71
2021/08/11 09:14:37;;;;;;;5.40;2.38;;;19.00;99.90;;;;;;5047130;28;20082;-69
2021/08/11 09:17:03;;;;;;;7.95;2.47;;;19.20;99.90;;;;;;5046267;28;20052;-68
2021/08/11 09:19:44;;;;;;;2.83;2.03;;;19.20;99.90;;;;;;5044938;28;20072;-70
2021/08/11 09:22:13;;;;;;;4.32;2.30;;;19.30;99.90;;;;;;5046696;28;20036;-70
2021/08/11 09:24:40;;;;;;;3.50;2.08;;;19.30;99.90;;;;;;5047067;28;20027;-70
2021/08/11 09:27:25;;;;;;;4.15;2.20;;;19.40;99.90;;;;;;5046765;28;20047;-70
2021/08/11 09:30:31;;;;;;;5.88;2.58;;;19.60;99.90;;;;;;5047201;28;20033;-71
2021/08/11 09:33:01;;;;;;;6.78;2.25;;;19.80;99.90;;;;;;5034284;28;20041;-70
2021/08/11 09:35:40;;;;;;;1.77;1.30;;;20.00;99.90;;;;;;5044083;28;20033;-75
2021/08/11 09:38:15;;;;;;;2.10;1.90;;;20.10;99.90;;;;;;5045054;28;20025;-70
2021/08/11 09:40:42;;;;;;;5.28;1.88;;;20.20;99.90;;;;;;5045721;28;20067;-71
2021/08/11 09:43:31;;;;;;;7.85;2.13;;;20.40;99.90;;;;;;5046599;28;20018;-69
2021/08/11 09:45:57;;;;;;;3.90;2.13;;;20.50;99.90;;;;;;5045640;28;20026;-72
2021/08/11 09:48:25;;;;;;;3.60;2.45;;;20.60;99.90;;;;;;5045836;28;20021;-69
2021/08/11 09:50:55;;;;;;;6.30;2.40;;;20.70;99.90;;;;;;5044874;28;20045;-71
2021/08/11 09:53:28;;;;;;;4.65;2.35;;;20.80;99.90;;;;;;5045295;28;20045;-69
2021/08/11 09:56:06;;;;;;;3.53;2.10;;;20.80;99.90;;;;;;5046476;28;20541;-71
2021/08/11 09:58:38;;;;;;;6.07;2.10;;;20.70;99.90;;;;;;5046537;28;20075;-68
2021/08/11 10:01:25;;;;;;;3.58;2.10;;;20.70;99.90;;;;;;5047374;28;20034;-68
2021/08/11 10:03:58;;;;;;;3.88;1.58;;;20.80;99.90;;;;;;5046584;28;20485;-70
2021/08/11 10:06:25;;;;;;;3.15;2.08;;;20.90;99.90;;;;;;5046410;28;20132;-69
2021/08/11 10:08:52;;;;;;;6.40;2.70;;;20.90;99.90;;;;;;5046059;28;20025;-72
2021/08/11 10:11:35;;;;;;;6.82;2.38;;;20.80;99.90;;;;;;5045091;28;20030;-78
2021/08/11 10:14:04;;;;;;;6.13;2.20;;;20.90;99.90;;;;;;5046137;28;20033;-73
2021/08/11 10:16:30;;;;;;;4.80;2.20;;;21.00;99.90;;;;;;5044444;28;20057;-68
2021/08/11 10:18:57;;;;;;;4.45;2.38;;;21.00;99.90;;;;;;5046043;28;20029;-71
2021/08/11 10:21:24;;;;;;;4.75;2.38;;;21.20;99.90;;;;;;5045801;28;20079;-69
2021/08/11 10:23:50;;;;;;;3.70;1.95;;;21.30;99.90;;;;;;5044476;28;20034;-69
2021/08/11 10:26:16;;;;;;;3.17;2.20;;;21.40;99.90;;;;;;5046165;28;20052;-74
2021/08/11 10:28:42;;;;;;;5.05;2.60;;;21.40;99.90;;;;;;5045259;28;20029;-68
2021/08/11 10:31:09;;;;;;;4.75;2.38;;;21.40;99.90;;;;;;5045616;28;20026;-69
2021/08/11 10:33:36;;;;;;;5.57;2.42;;;21.50;99.90;;;;;;5045622;28;20091;-71
2021/08/11 10:36:02;;;;;;;3.08;1.98;;;21.50;99.90;;;;;;5045743;28;20032;-69
2021/08/11 10:38:30;;;;;;;4.72;1.88;;;21.70;99.90;;;;;;5044054;28;20448;-69
2021/08/11 10:40:56;;;;;;;5.88;2.38;;;21.90;99.90;;;;;;5045675;28;20033;-71
2021/08/11 10:43:22;;;;;;;5.13;2.72;;;22.10;99.90;;;;;;5045638;28;20035;-71
2021/08/11 10:46:05;;;;;;;3.78;2.00;;;22.20;99.90;;;;;;5045646;28;20072;-74
2021/08/11 10:48:31;;;;;;;2.72;1.95;;;22.40;99.90;;;;;;5045411;28;20025;-70
2021/08/11 10:50:57;;;;;;;4.95;2.50;;;22.30;99.90;;;;;;5045577;28;20037;-71
2021/08/11 10:53:26;;;;;;;4.65;2.33;;;22.30;99.90;;;;;;5045380;28;20037;-68
2021/08/11 10:55:54;;;;;;;3.17;2.00;;;22.30;99.90;;;;;;5044150;28;20030;-78
2021/08/11 10:58:42;;;;;;;11.68;2.92;;;22.30;99.90;;;;;;5045253;28;20393;-69
2021/08/11 11:01:30;;;;;;;4.38;2.58;;;22.20;99.90;;;;;;5045231;28;20051;-69
2021/08/11 11:03:58;;;;;;;4.60;2.13;;;22.10;99.90;;;;;;5045316;28;20025;-70
2021/08/11 11:06:24;;;;;;;10.93;2.60;;;22.00;99.90;;;;;;5045322;28;20040;-69
2021/08/11 11:09:16;;;;;;;9.65;2.30;;;22.00;99.90;;;;;;5045072;28;20021;-68
2021/08/11 11:11:42;;;;;;;3.55;1.92;;;22.10;99.90;;;;;;5043802;28;20033;-69
2021/08/11 11:14:45;;;;;;;4.70;2.42;;;22.20;99.90;;;;;;5044971;28;20045;-72
2021/08/11 11:17:11;;;;;;;5.55;2.35;;;22.20;99.90;;;;;;5044531;28;20129;-68
2021/08/11 11:20:15;;;;;;;2.45;1.50;;;22.30;99.90;;;;;;5045159;28;20032;-71
2021/08/11 11:22:50;;;;;;;4.20;2.20;;;22.50;99.90;;;;;;5044264;28;20034;-73
2021/08/11 11:25:17;;;;;;;4.47;2.03;;;22.70;99.90;;;;;;5043498;28;20021;-73
2021/08/11 11:27:52;;;;;;;3.22;1.75;;;22.80;99.90;;;;;;5042936;28;20029;-70
2021/08/11 11:30:26;;;;;;;5.00;1.98;;;22.80;99.90;;;;;;5045256;28;20025;-68
2021/08/11 11:32:52;;;;;;;4.50;1.83;;;23.00;99.90;;;;;;5045136;28;20036;-69
2021/08/11 11:35:19;;;;;;;3.13;1.63;;;23.30;99.90;;;;;;5042954;28;20061;-69
2021/08/11 11:38:04;;;;;;;4.30;1.90;;;23.40;99.90;;;;;;5044784;28;20539;-69
2021/08/11 11:40:30;;;;;;;5.88;1.85;;;23.50;99.90;;;;;;5042704;28;20037;-69
2021/08/11 11:43:31;;;;;;;5.15;2.05;;;23.50;99.90;;;;;;5044290;28;20068;-69
2021/08/11 11:45:59;;;;;;;4.97;2.00;;;23.60;99.90;;;;;;5044549;28;20033;-69
2021/08/11 11:48:25;;;;;;;4.35;2.15;;;23.60;99.90;;;;;;5044935;28;20049;-68
2021/08/11 11:50:52;;;;;;;4.47;1.75;;;23.70;99.90;;;;;;5059892;28;20033;-70
2021/08/11 11:53:34;;;;;;;3.95;1.88;;;23.70;99.90;;;;;;5044519;28;20403;-73
2021/08/11 11:56:12;;;;;;;2.95;1.65;;;23.90;99.90;;;;;;5044774;28;20052;-71
2021/08/11 11:58:45;;;;;;;3.67;1.70;;;24.10;99.90;;;;;;5044415;28;20022;-71
2021/08/11 12:01:12;;;;;;;3.63;2.13;;;24.10;99.90;;;;;;5044299;28;20038;-73
2021/08/11 12:03:44;;;;;;;10.48;2.20;;;24.10;99.90;;;;;;5044666;28;20052;-75
2021/08/11 12:06:10;;;;;;;2.95;1.73;;;24.00;99.90;;;;;;5043181;28;20032;-71
2021/08/11 12:08:36;;;;;;;11.63;2.25;;;24.10;99.90;;;;;;5044220;28;20089;-70
2021/08/11 12:11:07;;;;;;;3.00;1.85;;;23.90;99.90;;;;;;5044315;28;20030;-69
2021/08/11 12:13:48;;;;;;;2.08;1.55;;;23.90;99.90;;;;;;5044102;28;20031;-70
2021/08/11 12:16:19;;;;;;;2.58;1.73;;;23.90;99.90;;;;;;5044557;28;20056;-69
2021/08/11 12:18:47;;;;;;;2.95;1.77;;;23.90;99.90;;;;;;5044272;28;20056;-71
2021/08/11 12:21:15;;;;;;;1.85;1.23;;;24.30;99.90;;;;;;5044223;28;20474;-77
2021/08/11 12:23:41;;;;;;;3.33;1.50;;;24.50;99.90;;;;;;5044275;28;20089;-70
2021/08/11 12:26:15;;;;;;;2.50;1.60;;;24.90;99.90;;;;;;5044377;28;20022;-73
2021/08/11 12:28:48;;;;;;;3.72;1.88;;;25.00;99.90;;;;;;5043621;28;20037;-70
2021/08/11 12:31:23;;;;;;;3.10;1.55;;;25.30;99.90;;;;;;5043856;28;20025;-69
2021/08/11 12:33:53;;;;;;;3.03;1.77;;;25.40;99.90;;;;;;5043490;28;20049;-75
2021/08/11 12:36:26;;;;;;;2.78;1.15;;;25.60;99.90;;;;;;5044420;28;20025;-71
2021/08/11 12:38:59;;;;;;;2.53;1.23;;;25.80;99.90;;;;;;5048303;28;20033;-73
2021/08/11 12:41:27;;;;;;;5.87;1.70;;;26.10;99.90;;;;;;5056300;28;20033;-74
2021/08/11 12:43:56;;;;;;;3.30;1.52;;;26.20;99.90;;;;;;5044211;28;20264;-68
2021/08/11 12:47:04;;;;;;;2.13;1.30;;;26.30;99.90;;;;;;5044343;28;20433;-71
2021/08/11 12:49:29;;;;;;;2.95;1.88;;;26.20;99.90;;;;;;4982618;28;20031;-69
2021/08/11 12:52:04;;;;;;;2.67;1.63;;;26.20;99.90;;;;;;4983848;28;20054;-70